createdAt,value
2023-01-27T00:02:48.092Z,102181.72
2023-01-27T00:05:34.666Z,102177.44
2023-01-27T00:08:21.523Z,102178.00
2023-01-27T00:11:25.672Z,102170.75
2023-01-27T00:14:12.257Z,102166.63
2023-01-27T00:16:58.732Z,102172.34
2023-01-27T00:19:46.651Z,102169.19
2023-01-27T00:22:50.707Z,102168.38
2023-01-27T00:25:37.252Z,102154.19
2023-01-27T00:28:25.505Z,102163.59
2023-01-27T00:31:31.518Z,102162.34
2023-01-27T00:34:18.198Z,102161.72
2023-01-27T00:37:06.456Z,102173.53
2023-01-27T00:39:53.238Z,102192.03
2023-01-27T00:42:39.935Z,102209.97
2023-01-27T00:45:43.911Z,102224.72
2023-01-27T00:48:30.475Z,102250.22
2023-01-27T00:51:17.598Z,102239.59
2023-01-27T00:54:06.443Z,102241.88
2023-01-27T00:56:52.623Z,102225.59
2023-01-27T00:59:39.172Z,102215.94
2023-01-27T01:02:25.690Z,102220.16
2023-01-27T01:05:11.990Z,102220.97
2023-01-27T01:07:58.707Z,102219.66
2023-01-27T01:10:47.050Z,102221.00
2023-01-27T01:13:34.142Z,102227.75
2023-01-27T01:16:22.560Z,102231.19
2023-01-27T01:19:08.946Z,102235.59
2023-01-27T01:21:55.249Z,102225.34
2023-01-27T01:24:41.700Z,102231.72
2023-01-27T01:27:29.747Z,102222.50
2023-01-27T01:30:17.718Z,102215.53
2023-01-27T01:33:04.872Z,102222.34
2023-01-27T01:35:51.560Z,102222.56
2023-01-27T01:38:38.436Z,102219.97
2023-01-27T01:41:26.345Z,102220.22
2023-01-27T01:44:25.367Z,102231.97
2023-01-27T01:47:16.348Z,102241.56
2023-01-27T01:50:03.118Z,102231.31
2023-01-27T01:52:49.567Z,102232.44
2023-01-27T01:55:38.832Z,102227.13
2023-01-27T01:58:28.009Z,102239.00
2023-01-27T02:01:18.974Z,102234.53
2023-01-27T02:04:11.579Z,102233.19
2023-01-27T02:07:06.171Z,102232.28
2023-01-27T02:09:53.066Z,102237.25
2023-01-27T02:12:39.425Z,102250.88
2023-01-27T02:15:27.022Z,102246.56
2023-01-27T02:18:15.267Z,102235.25
2023-01-27T02:21:02.773Z,102241.50
2023-01-27T02:24:00.714Z,102257.91
2023-01-27T02:26:51.279Z,102256.56
2023-01-27T02:29:37.723Z,102256.56
2023-01-27T02:32:25.174Z,102267.53
2023-01-27T02:35:18.593Z,102266.94
2023-01-27T02:38:07.898Z,102257.16
2023-01-27T02:40:58.991Z,102261.09
2023-01-27T02:43:49.269Z,102268.28
2023-01-27T02:46:35.729Z,102273.31
2023-01-27T02:49:22.191Z,102265.72
2023-01-27T02:52:09.384Z,102271.97
2023-01-27T02:54:56.389Z,102275.72
2023-01-27T02:57:42.664Z,102276.22
2023-01-27T03:00:49.446Z,102276.09
2023-01-27T03:03:36.361Z,102280.75
2023-01-27T03:06:23.988Z,102290.88
2023-01-27T03:09:10.388Z,102293.44
2023-01-27T03:12:15.295Z,102289.44
2023-01-27T03:15:19.598Z,102298.47
2023-01-27T03:18:12.661Z,102291.53
2023-01-27T03:21:02.582Z,102301.31
2023-01-27T03:23:49.796Z,102305.31
2023-01-27T03:26:41.657Z,102305.63
2023-01-27T03:29:47.298Z,102315.75
2023-01-27T03:32:34.065Z,102318.06
2023-01-27T03:35:48.168Z,102325.59
2023-01-27T03:38:55.713Z,102345.03
2023-01-27T03:42:00.036Z,102344.38
2023-01-27T03:45:04.274Z,102342.09
2023-01-27T03:47:50.754Z,102342.72
2023-01-27T03:50:38.320Z,102346.75
2023-01-27T03:53:26.173Z,102340.94
2023-01-27T03:56:13.095Z,102345.91
2023-01-27T03:58:59.473Z,102344.44
2023-01-27T04:01:46.281Z,102345.44
2023-01-27T04:04:50.509Z,102341.13
2023-01-27T04:07:37.515Z,102335.19
2023-01-27T04:10:25.463Z,102339.31
2023-01-27T04:13:10.918Z,102338.25
2023-01-27T04:15:57.685Z,102336.63
2023-01-27T04:18:47.256Z,102332.16
2023-01-27T04:21:35.486Z,102333.56
2023-01-27T04:24:25.133Z,102330.72
2023-01-27T04:27:15.354Z,102324.38
2023-01-27T04:30:02.048Z,102334.13
2023-01-27T04:32:48.826Z,102340.13
2023-01-27T04:35:39.011Z,102332.81
2023-01-27T04:38:25.629Z,102335.88
2023-01-27T04:41:12.191Z,102340.50
2023-01-27T04:43:59.969Z,102334.41
2023-01-27T04:46:46.778Z,102326.34
2023-01-27T04:49:33.072Z,102327.59
2023-01-27T04:52:19.451Z,102335.31
2023-01-27T04:55:09.237Z,102320.50
2023-01-27T04:57:55.314Z,102324.88
2023-01-27T05:00:43.403Z,102325.16
2023-01-27T05:03:30.094Z,102331.59
2023-01-27T05:06:16.814Z,102327.44
2023-01-27T05:09:03.569Z,102322.06
2023-01-27T05:11:50.278Z,102329.03
2023-01-27T05:14:37.115Z,102316.91
2023-01-27T05:17:25.021Z,102322.31
2023-01-27T05:20:12.417Z,102329.41
2023-01-27T05:23:19.054Z,102334.16
2023-01-27T05:26:07.752Z,102341.97
2023-01-27T05:28:55.582Z,102345.16
2023-01-27T05:31:41.813Z,102348.16
2023-01-27T05:34:29.504Z,102340.25
2023-01-27T05:37:16.234Z,102353.06
2023-01-27T05:40:02.906Z,102351.88
2023-01-27T05:42:52.136Z,102348.31
2023-01-27T05:45:38.555Z,102354.97
2023-01-27T05:48:25.264Z,102356.19
2023-01-27T05:51:15.436Z,102365.13
2023-01-27T05:54:02.743Z,102360.56
2023-01-27T05:56:49.263Z,102372.25
2023-01-27T05:59:36.090Z,102373.25
2023-01-27T06:02:23.631Z,102382.22
2023-01-27T06:05:10.713Z,102388.44
2023-01-27T06:07:58.489Z,102389.81
2023-01-27T06:10:45.753Z,102391.25
2023-01-27T06:13:35.634Z,102383.34
2023-01-27T06:16:23.414Z,102401.31
2023-01-27T06:19:11.328Z,102398.97
2023-01-27T06:21:58.312Z,102391.06
2023-01-27T06:24:45.964Z,102400.72
2023-01-27T06:27:32.804Z,102400.97
2023-01-27T06:30:19.609Z,102408.97
2023-01-27T06:33:07.095Z,102412.66
2023-01-27T06:36:01.560Z,102420.00
2023-01-27T06:38:48.966Z,102426.16
2023-01-27T06:41:36.854Z,102414.59
2023-01-27T06:44:23.537Z,102430.59
2023-01-27T06:47:10.832Z,102423.13
2023-01-27T06:49:57.318Z,102412.69
2023-01-27T06:52:43.856Z,102424.72
2023-01-27T06:55:31.229Z,102425.06
2023-01-27T06:58:18.951Z,102424.22
2023-01-27T07:01:07.336Z,102427.31
2023-01-27T07:03:54.424Z,102419.34
2023-01-27T07:06:41.770Z,102423.50
2023-01-27T07:09:28.263Z,102425.91
2023-01-27T07:12:14.872Z,102431.94
2023-01-27T07:15:02.885Z,102431.19
2023-01-27T07:17:49.515Z,102436.44
2023-01-27T07:20:36.416Z,102446.09
2023-01-27T07:23:23.099Z,102441.63
2023-01-27T07:26:23.233Z,102445.78
2023-01-27T07:29:11.588Z,102453.25
2023-01-27T07:31:59.740Z,102460.31
2023-01-27T07:34:46.151Z,102459.97
2023-01-27T07:37:33.825Z,102458.06
2023-01-27T07:40:20.995Z,102470.47
2023-01-27T07:43:07.418Z,102482.00
2023-01-27T07:45:56.982Z,102488.09
2023-01-27T07:48:44.837Z,102488.38
2023-01-27T07:51:31.429Z,102498.28
2023-01-27T07:54:18.023Z,102501.75
2023-01-27T07:57:04.813Z,102504.03
2023-01-27T07:59:55.260Z,102501.19
2023-01-27T08:02:41.659Z,102509.53
2023-01-27T08:05:30.690Z,102523.13
2023-01-27T08:08:17.010Z,102521.28
2023-01-27T08:11:05.305Z,102516.75
2023-01-27T08:13:51.873Z,102514.81
2023-01-27T08:16:38.412Z,102526.50
2023-01-27T08:19:24.922Z,102514.22
2023-01-27T08:22:19.587Z,102518.72
2023-01-27T08:25:06.648Z,102516.78
2023-01-27T08:27:53.643Z,102524.34
2023-01-27T08:30:40.219Z,102518.84
2023-01-27T08:33:26.900Z,102527.16
2023-01-27T08:36:18.991Z,102529.13
2023-01-27T08:39:06.898Z,102525.84
2023-01-27T08:41:53.696Z,102519.44
2023-01-27T08:44:40.431Z,102534.28
2023-01-27T08:47:27.074Z,102532.44
2023-01-27T08:50:13.865Z,102534.38
2023-01-27T08:53:01.697Z,102537.19
2023-01-27T08:55:49.608Z,102537.97
2023-01-27T08:58:36.906Z,102543.69
2023-01-27T09:01:23.923Z,102548.25
2023-01-27T09:04:10.740Z,102546.03
2023-01-27T09:06:57.300Z,102558.03
2023-01-27T09:09:46.900Z,102567.22
2023-01-27T09:12:35.014Z,102565.50
2023-01-27T09:15:21.836Z,102576.03
2023-01-27T09:18:08.344Z,102576.13
2023-01-27T09:20:54.912Z,102575.78
2023-01-27T09:23:41.538Z,102589.13
2023-01-27T09:26:28.127Z,102577.97
2023-01-27T09:29:16.166Z,102593.88
2023-01-27T09:32:03.180Z,102587.53
2023-01-27T09:34:50.216Z,102587.63
2023-01-27T09:37:43.402Z,102591.94
2023-01-27T09:40:32.701Z,102586.78
2023-01-27T09:43:44.927Z,102587.91
2023-01-27T09:46:47.905Z,102592.81
2023-01-27T09:49:59.033Z,102584.84
2023-01-27T09:53:01.453Z,102590.47
2023-01-27T09:55:55.826Z,102589.41
2023-01-27T09:59:01.926Z,102591.03
2023-01-27T10:02:01.756Z,102586.53
2023-01-27T10:05:08.575Z,102594.78
2023-01-27T10:08:25.630Z,102595.34
2023-01-27T10:11:20.526Z,102594.56
2023-01-27T10:14:18.466Z,102602.22
2023-01-27T10:17:24.165Z,102599.72
2023-01-27T10:20:21.101Z,102607.69
2023-01-27T10:23:19.263Z,102619.28
2023-01-27T10:26:18.253Z,102618.97
2023-01-27T10:29:10.938Z,102630.22
2023-01-27T10:32:07.377Z,102637.28
2023-01-27T10:35:03.439Z,102629.22
2023-01-27T10:38:04.139Z,102636.19
2023-01-27T10:40:59.937Z,102641.81
2023-01-27T10:44:00.855Z,102627.22
2023-01-27T10:46:56.837Z,102625.97
2023-01-27T10:49:49.557Z,102629.16
2023-01-27T10:52:43.700Z,102634.50
2023-01-27T10:55:39.241Z,102652.22
2023-01-27T10:58:39.146Z,102616.25
2023-01-27T11:01:31.327Z,102593.69
2023-01-27T11:04:27.838Z,102578.72
2023-01-27T11:07:19.521Z,102565.19
2023-01-27T11:10:17.068Z,102586.84
2023-01-27T11:13:06.090Z,102591.88
2023-01-27T11:15:52.756Z,102589.06
2023-01-27T11:18:39.913Z,102608.50
2023-01-27T11:21:31.299Z,102612.00
2023-01-27T11:24:24.422Z,102614.41
2023-01-27T11:27:20.802Z,102612.91
2023-01-27T11:30:18.657Z,102622.09
2023-01-27T11:33:18.730Z,102632.75
2023-01-27T11:36:05.496Z,102593.31
2023-01-27T11:38:52.205Z,102581.78
2023-01-27T11:41:42.359Z,102568.56
2023-01-27T11:44:33.146Z,102564.06
2023-01-27T11:47:25.833Z,102553.47
2023-01-27T11:50:16.940Z,102546.06
2023-01-27T11:53:13.367Z,102551.44
2023-01-27T11:56:04.937Z,102567.31
2023-01-27T11:58:58.688Z,102578.72
2023-01-27T12:01:51.894Z,102588.97
2023-01-27T12:04:51.721Z,102598.88
2023-01-27T12:07:47.297Z,102593.00
2023-01-27T12:10:36.062Z,102593.25
2023-01-27T12:13:26.468Z,102598.69
2023-01-27T12:16:12.971Z,102597.44
2023-01-27T12:19:05.106Z,102588.75
2023-01-27T12:21:56.596Z,102587.09
2023-01-27T12:24:48.923Z,102593.72
2023-01-27T12:27:42.619Z,102590.69
2023-01-27T12:30:33.083Z,102587.72
2023-01-27T12:33:25.507Z,102595.63
2023-01-27T12:36:17.931Z,102592.06
2023-01-27T12:39:04.654Z,102582.69
2023-01-27T12:41:51.876Z,102587.59
2023-01-27T12:44:43.428Z,102593.63
2023-01-27T12:47:31.890Z,102602.72
2023-01-27T12:50:23.040Z,102586.44
2023-01-27T12:53:14.713Z,102591.19
2023-01-27T12:56:10.965Z,102603.72
2023-01-27T12:58:59.382Z,102597.50
2023-01-27T13:01:59.831Z,102609.97
2023-01-27T13:04:51.777Z,102603.06
2023-01-27T13:07:43.299Z,102607.38
2023-01-27T13:10:31.429Z,102613.38
2023-01-27T13:13:21.726Z,102613.66
2023-01-27T13:16:19.015Z,102618.16
2023-01-27T13:19:17.796Z,102615.09
2023-01-27T13:22:05.899Z,102605.47
2023-01-27T13:24:58.973Z,102606.84
2023-01-27T13:27:48.579Z,102616.28
2023-01-27T13:30:41.634Z,102630.47
2023-01-27T13:33:42.794Z,102613.94
2023-01-27T13:36:37.613Z,102611.53
2023-01-27T13:39:35.387Z,102607.22
2023-01-27T13:42:28.558Z,102598.34
2023-01-27T13:45:20.334Z,102603.13
2023-01-27T13:48:13.648Z,102598.75
2023-01-27T13:51:07.707Z,102611.78
2023-01-27T13:54:00.543Z,102606.13
2023-01-27T13:57:03.054Z,102611.50
2023-01-27T14:00:01.552Z,102608.78
2023-01-27T14:03:45.430Z,102619.47
2023-01-27T14:06:47.124Z,102616.63
2023-01-27T14:09:45.923Z,102618.22
2023-01-27T14:12:46.819Z,102614.28
2023-01-27T14:15:38.862Z,102606.22
2023-01-27T14:18:31.193Z,102603.25
2023-01-27T14:21:39.934Z,102608.63
2023-01-27T14:24:40.540Z,102612.97
2023-01-27T14:27:33.360Z,102606.91
2023-01-27T14:30:25.062Z,102618.88
2023-01-27T14:33:20.364Z,102619.94
2023-01-27T14:36:16.991Z,102632.59
2023-01-27T14:39:17.852Z,102643.47
2023-01-27T14:42:15.400Z,102647.41
2023-01-27T14:45:08.326Z,102644.88
2023-01-27T14:48:01.179Z,102659.19
2023-01-27T14:50:53.445Z,102663.88
2023-01-27T14:54:03.763Z,102665.00
2023-01-27T14:57:03.159Z,102662.44
2023-01-27T15:00:01.577Z,102660.00
2023-01-27T15:02:53.861Z,102658.22
2023-01-27T15:05:45.539Z,102671.56
2023-01-27T15:08:40.670Z,102689.88
2023-01-27T15:11:44.785Z,102685.13
2023-01-27T15:15:03.058Z,102690.16
2023-01-27T15:18:09.106Z,102679.56
2023-01-27T15:21:12.824Z,102685.16
2023-01-27T15:24:20.266Z,102682.81
2023-01-27T15:27:09.714Z,102688.91
2023-01-27T15:30:05.253Z,102693.16
2023-01-27T15:32:52.515Z,102697.94
2023-01-27T15:35:41.562Z,102693.72
2023-01-27T15:38:35.103Z,102698.53
2023-01-27T15:41:21.887Z,102696.41
2023-01-27T15:44:17.259Z,102687.81
2023-01-27T15:47:10.547Z,102694.28
2023-01-27T15:50:08.575Z,102699.13
2023-01-27T15:53:02.746Z,102695.63
2023-01-27T15:55:53.331Z,102691.00
2023-01-27T15:58:42.116Z,102691.66
2023-01-27T16:01:31.357Z,102697.81
2023-01-27T16:04:25.116Z,102693.00
2023-01-27T16:07:22.880Z,102691.88
2023-01-27T16:10:19.220Z,102696.88
2023-01-27T16:13:26.458Z,102691.53
2023-01-27T16:16:35.516Z,102690.63
2023-01-27T16:19:30.026Z,102694.13
2023-01-27T16:22:20.008Z,102704.03
2023-01-27T16:25:20.012Z,102711.56
2023-01-27T16:28:13.946Z,102721.63
2023-01-27T16:31:06.685Z,102737.19
2023-01-27T16:33:58.326Z,102738.47
2023-01-27T16:36:47.449Z,102717.69
2023-01-27T16:39:40.006Z,102684.69
2023-01-27T16:42:31.234Z,102673.94
2023-01-27T16:45:21.527Z,102665.13
2023-01-27T16:48:21.483Z,102664.91
2023-01-27T16:51:16.462Z,102656.97
2023-01-27T16:54:20.101Z,102644.84
2023-01-27T16:57:08.547Z,102643.53
2023-01-27T16:59:56.687Z,102639.16
2023-01-27T17:02:43.507Z,102640.72
2023-01-27T17:05:30.414Z,102632.59
2023-01-27T17:08:19.259Z,102633.13
2023-01-27T17:11:17.552Z,102637.84
2023-01-27T17:14:04.945Z,102630.13
2023-01-27T17:16:51.640Z,102632.69
2023-01-27T17:19:38.622Z,102621.09
2023-01-27T17:22:28.247Z,102630.53
2023-01-27T17:25:17.584Z,102627.44
2023-01-27T17:28:11.418Z,102630.75
2023-01-27T17:31:07.408Z,102631.63
2023-01-27T17:34:00.925Z,102630.34
2023-01-27T17:37:06.693Z,102639.97
2023-01-27T17:39:55.429Z,102643.41
2023-01-27T17:42:43.640Z,102643.97
2023-01-27T17:45:32.874Z,102637.28
2023-01-27T17:48:19.652Z,102658.09
2023-01-27T17:51:06.449Z,102685.00
2023-01-27T17:53:54.476Z,102709.63
2023-01-27T17:56:41.237Z,102723.03
2023-01-27T17:59:28.901Z,102746.34
2023-01-27T18:02:24.671Z,102752.41
2023-01-27T18:05:17.151Z,102754.75
2023-01-27T18:08:05.144Z,102727.50
2023-01-27T18:10:52.842Z,102720.97
2023-01-27T18:13:41.187Z,102738.97
2023-01-27T18:16:29.770Z,102759.28
2023-01-27T18:19:23.242Z,102774.53
2023-01-27T18:22:16.291Z,102788.66
2023-01-27T18:25:04.644Z,102802.78
2023-01-27T18:27:53.847Z,102809.50
2023-01-27T18:30:48.718Z,102797.84
2023-01-27T18:33:36.240Z,102805.22
2023-01-27T18:36:26.058Z,102811.84
2023-01-27T18:39:29.293Z,102821.59
2023-01-27T18:42:17.367Z,102837.72
2023-01-27T18:45:04.317Z,102848.19
2023-01-27T18:47:51.143Z,102869.97
2023-01-27T18:50:43.097Z,102865.34
2023-01-27T18:53:31.212Z,102878.88
2023-01-27T18:56:17.837Z,102878.09
2023-01-27T18:59:04.295Z,102883.19
2023-01-27T19:01:50.856Z,102886.44
2023-01-27T19:04:37.414Z,102886.16
2023-01-27T19:07:24.101Z,102878.25
2023-01-27T19:10:16.747Z,102897.81
2023-01-27T19:13:05.772Z,102889.13
2023-01-27T19:15:55.258Z,102881.22
2023-01-27T19:18:42.972Z,102890.09
2023-01-27T19:21:30.374Z,102897.22
2023-01-27T19:24:17.082Z,102899.03
2023-01-27T19:27:05.155Z,102893.28
2023-01-27T19:29:51.979Z,102894.72
2023-01-27T19:32:38.776Z,102898.56
2023-01-27T19:35:27.615Z,102910.56
2023-01-27T19:38:14.477Z,102907.41
2023-01-27T19:41:03.323Z,102901.75
2023-01-27T19:43:51.269Z,102894.97
2023-01-27T19:46:40.545Z,102909.09
2023-01-27T19:49:26.930Z,102905.81
2023-01-27T19:52:13.399Z,102909.97
2023-01-27T19:54:59.941Z,102917.00
2023-01-27T19:57:46.912Z,102921.25
2023-01-27T20:00:37.464Z,102912.97
2023-01-27T20:03:24.636Z,102918.28
2023-01-27T20:06:17.189Z,102888.31
2023-01-27T20:09:03.988Z,102908.13
2023-01-27T20:11:50.584Z,102918.44
2023-01-27T20:14:36.929Z,102919.31
2023-01-27T20:17:24.918Z,102936.53
2023-01-27T20:20:12.783Z,102930.94
2023-01-27T20:22:59.508Z,102929.94
2023-01-27T20:25:46.281Z,102932.59
2023-01-27T20:28:32.879Z,102946.66
2023-01-27T20:31:22.503Z,102929.38
2023-01-27T20:34:10.745Z,102902.66
2023-01-27T20:36:57.533Z,102894.81
2023-01-27T20:39:44.607Z,102888.22
2023-01-27T20:42:31.536Z,102871.81
2023-01-27T20:45:19.258Z,102873.69
2023-01-27T20:48:06.212Z,102874.28
2023-01-27T20:51:00.572Z,102858.66
2023-01-27T20:53:47.846Z,102854.50
2023-01-27T20:56:34.797Z,102856.47
2023-01-27T20:59:21.525Z,102857.31
2023-01-27T21:02:08.380Z,102857.34
2023-01-27T21:04:55.206Z,102857.63
2023-01-27T21:07:43.383Z,102858.56
2023-01-27T21:10:30.307Z,102865.84
2023-01-27T21:13:17.873Z,102858.69
2023-01-27T21:16:04.617Z,102857.22
2023-01-27T21:18:51.409Z,102856.19
2023-01-27T21:21:38.131Z,102846.88
2023-01-27T21:24:26.184Z,102851.13
2023-01-27T21:27:13.600Z,102855.78
2023-01-27T21:30:00.605Z,102851.75
2023-01-27T21:32:47.275Z,102840.34
2023-01-27T21:35:34.064Z,102839.81
2023-01-27T21:38:21.000Z,102834.56
2023-01-27T21:41:11.873Z,102833.06
2023-01-27T21:44:15.919Z,102826.38
2023-01-27T21:47:02.749Z,102824.53
2023-01-27T21:50:01.396Z,102828.88
2023-01-27T21:52:49.346Z,102827.09
2023-01-27T21:55:35.904Z,102822.19
2023-01-27T21:58:24.595Z,102820.03
2023-01-27T22:01:11.834Z,102823.78
2023-01-27T22:03:58.501Z,102806.38
2023-01-27T22:06:44.912Z,102807.88
2023-01-27T22:09:31.511Z,102806.88
2023-01-27T22:12:18.818Z,102808.38
2023-01-27T22:15:08.141Z,102812.00
2023-01-27T22:17:54.790Z,102821.84
2023-01-27T22:20:41.378Z,102821.00
2023-01-27T22:23:28.237Z,102812.13
2023-01-27T22:26:14.939Z,102817.09
2023-01-27T22:29:01.787Z,102822.53
2023-01-27T22:31:49.728Z,102817.88
2023-01-27T22:34:36.535Z,102816.88
2023-01-27T22:37:23.282Z,102808.81
2023-01-27T22:40:11.169Z,102796.81
2023-01-27T22:42:58.002Z,102805.66
2023-01-27T22:45:45.458Z,102794.00
2023-01-27T22:48:33.606Z,102793.66
2023-01-27T22:51:20.536Z,102791.41
2023-01-27T22:54:09.350Z,102786.16
2023-01-27T22:56:56.192Z,102789.03
2023-01-27T23:02:58.940Z,102785.69
2023-01-27T23:05:47.093Z,102792.03
2023-01-27T23:08:33.767Z,102797.03
2023-01-27T23:11:20.593Z,102800.44
2023-01-27T23:14:07.633Z,102799.47
2023-01-27T23:16:54.304Z,102793.22
2023-01-27T23:19:40.842Z,102803.09
2023-01-27T23:22:29.086Z,102810.91
2023-01-27T23:25:17.155Z,102813.09
2023-01-27T23:28:03.958Z,102811.84
2023-01-27T23:30:51.371Z,102805.47
2023-01-27T23:33:40.542Z,102818.56
2023-01-27T23:36:27.210Z,102808.06
2023-01-27T23:39:17.414Z,102819.16
2023-01-27T23:42:04.204Z,102814.53
2023-01-27T23:44:51.051Z,102811.31
2023-01-27T23:47:37.766Z,102807.00
2023-01-27T23:50:24.844Z,102812.03
2023-01-27T23:53:12.049Z,102811.31
2023-01-27T23:56:01.357Z,102809.78
2023-01-27T23:58:49.035Z,102812.78
